createdAt,value
2022-11-21T00:00:09.057Z,7.25
2022-11-21T00:02:35.836Z,6.95
2022-11-21T00:05:02.612Z,5.17
2022-11-21T00:07:30.853Z,11.20
2022-11-21T00:09:57.627Z,9.60
2022-11-21T00:12:24.468Z,9.90
2022-11-21T00:14:51.307Z,9.97
2022-11-21T00:17:18.120Z,3.70
2022-11-21T00:19:44.899Z,14.20
2022-11-21T00:22:11.738Z,3.47
2022-11-21T00:24:39.920Z,9.98
2022-11-21T00:27:06.693Z,8.48
2022-11-21T00:29:33.522Z,8.00
2022-11-21T00:32:00.270Z,14.45
2022-11-21T00:34:27.380Z,2.93
2022-11-21T00:36:54.404Z,3.97
2022-11-21T00:39:21.189Z,3.22
2022-11-21T00:41:49.356Z,10.63
2022-11-21T00:44:16.144Z,4.22
2022-11-21T00:46:42.896Z,5.70
2022-11-21T00:49:09.778Z,7.53
2022-11-21T00:51:36.751Z,6.32
2022-11-21T00:54:03.600Z,10.20
2022-11-21T00:56:30.338Z,5.73
2022-11-21T00:58:58.519Z,9.50
2022-11-21T01:01:25.361Z,3.60
2022-11-21T01:03:52.135Z,6.20
2022-11-21T01:06:19.104Z,4.20
2022-11-21T01:08:45.861Z,4.03
2022-11-21T01:11:14.834Z,4.90
2022-11-21T01:13:42.292Z,8.07
2022-11-21T01:16:13.208Z,5.63
2022-11-21T01:18:40.070Z,6.70
2022-11-21T01:21:08.910Z,5.57
2022-11-21T01:23:35.871Z,15.45
2022-11-21T01:26:03.406Z,15.65
2022-11-21T01:28:30.376Z,5.30
2022-11-21T01:31:03.664Z,2.37
2022-11-21T01:33:31.847Z,6.18
2022-11-21T01:36:06.584Z,3.37
2022-11-21T01:38:33.692Z,7.68
2022-11-21T01:41:00.610Z,3.22
2022-11-21T01:43:27.368Z,14.45
2022-11-21T01:45:56.813Z,4.70
2022-11-21T01:48:28.413Z,3.25
2022-11-21T01:51:01.200Z,4.88
2022-11-21T01:53:28.233Z,5.97
2022-11-21T01:55:55.110Z,6.60
2022-11-21T01:58:23.810Z,6.93
2022-11-21T02:00:51.102Z,17.50
2022-11-21T02:03:23.820Z,8.85
2022-11-21T02:05:53.839Z,4.25
2022-11-21T02:08:23.767Z,5.28
2022-11-21T02:10:58.823Z,7.45
2022-11-21T02:13:26.471Z,3.85
2022-11-21T02:15:53.864Z,4.03
2022-11-21T02:18:20.780Z,3.53
2022-11-21T02:20:53.435Z,8.40
2022-11-21T02:23:27.003Z,5.78
2022-11-21T02:25:55.566Z,5.63
2022-11-21T02:28:24.629Z,3.00
2022-11-21T02:30:51.425Z,7.20
2022-11-21T02:33:18.257Z,5.78
2022-11-21T02:35:45.082Z,2.30
2022-11-21T02:38:17.774Z,5.82
2022-11-21T02:40:52.292Z,3.40
2022-11-21T02:43:24.739Z,3.37
2022-11-21T02:45:51.734Z,2.90
2022-11-21T02:48:18.630Z,5.10
2022-11-21T02:50:47.004Z,4.43
2022-11-21T02:53:15.957Z,6.53
2022-11-21T02:55:43.524Z,6.70
2022-11-21T02:58:11.379Z,7.33
2022-11-21T03:00:41.676Z,8.10
2022-11-21T03:03:09.282Z,3.87
2022-11-21T03:05:36.288Z,4.90
2022-11-21T03:08:04.363Z,4.00
2022-11-21T03:10:31.146Z,4.57
2022-11-21T03:13:03.697Z,9.53
2022-11-21T03:15:32.418Z,6.60
2022-11-21T03:18:02.893Z,14.70
2022-11-21T03:20:30.331Z,8.63
2022-11-21T03:22:57.354Z,2.83
2022-11-21T03:25:24.413Z,10.47
2022-11-21T03:27:52.399Z,11.73
2022-11-21T03:30:19.852Z,7.40
2022-11-21T03:32:46.851Z,3.90
2022-11-21T03:35:15.283Z,13.03
2022-11-21T03:37:42.492Z,11.23
2022-11-21T03:40:10.580Z,9.07
2022-11-21T03:42:37.427Z,9.80
2022-11-21T03:45:05.178Z,13.33
2022-11-21T03:47:31.991Z,12.13
2022-11-21T03:49:58.832Z,11.30
2022-11-21T03:52:27.025Z,11.97
2022-11-21T03:54:53.851Z,8.37
2022-11-21T03:57:20.681Z,14.17
2022-11-21T03:59:47.538Z,7.70
2022-11-21T04:02:14.341Z,12.20
2022-11-21T04:04:41.183Z,25.53
2022-11-21T04:07:08.004Z,33.77
2022-11-21T04:09:36.161Z,19.90
2022-11-21T04:12:07.551Z,17.30
2022-11-21T04:14:34.815Z,20.97
2022-11-21T04:17:01.642Z,11.67
2022-11-21T04:19:28.431Z,13.40
2022-11-21T04:21:55.235Z,17.10
2022-11-21T04:24:22.006Z,6.43
2022-11-21T04:26:50.176Z,13.97
2022-11-21T04:29:16.939Z,9.33
2022-11-21T04:31:43.764Z,7.50
2022-11-21T04:34:10.687Z,11.87
2022-11-21T04:36:37.599Z,4.63
2022-11-21T04:39:04.443Z,15.00
2022-11-21T04:41:31.250Z,10.73
2022-11-21T04:43:59.448Z,9.20
2022-11-21T04:46:26.196Z,7.57
2022-11-21T04:48:53.012Z,8.30
2022-11-21T04:51:19.895Z,3.70
2022-11-21T04:53:46.668Z,11.00
2022-11-21T04:56:16.561Z,13.37
2022-11-21T04:58:44.732Z,6.53
2022-11-21T05:01:13.033Z,19.77
2022-11-21T05:03:39.965Z,6.03
2022-11-21T05:06:06.727Z,10.43
2022-11-21T05:08:33.573Z,4.93
2022-11-21T05:11:18.773Z,3.93
2022-11-21T05:13:45.655Z,8.53
2022-11-21T05:16:13.825Z,8.40
2022-11-21T05:18:40.649Z,9.30
2022-11-21T05:21:07.469Z,8.27
2022-11-21T05:23:34.221Z,8.07
2022-11-21T05:26:01.023Z,5.90
2022-11-21T05:28:27.800Z,9.03
2022-11-21T05:30:54.603Z,8.77
2022-11-21T05:33:22.784Z,16.67
2022-11-21T05:35:49.612Z,8.73
2022-11-21T05:38:16.496Z,15.80
2022-11-21T05:40:43.321Z,7.23
2022-11-21T05:43:30.484Z,14.90
2022-11-21T05:45:59.500Z,11.13
2022-11-21T05:48:27.662Z,8.97
2022-11-21T05:50:54.434Z,12.07
2022-11-21T05:53:21.280Z,9.93
2022-11-21T05:55:48.101Z,24.47
2022-11-21T05:58:14.972Z,17.03
2022-11-21T06:00:41.818Z,12.83
2022-11-21T06:03:28.648Z,16.13
2022-11-21T06:06:01.987Z,18.17
2022-11-21T06:08:30.269Z,15.98
2022-11-21T06:10:57.435Z,5.87
2022-11-21T06:13:24.437Z,15.93
2022-11-21T06:15:53.423Z,15.33
2022-11-21T06:18:21.835Z,9.20
2022-11-21T06:20:48.707Z,6.73
2022-11-21T06:23:17.187Z,8.50
2022-11-21T06:25:44.464Z,5.63
2022-11-21T06:28:11.718Z,5.50
2022-11-21T06:30:39.037Z,12.90
2022-11-21T06:33:06.725Z,6.63
2022-11-21T06:35:37.151Z,11.53
2022-11-21T06:38:04.264Z,10.37
2022-11-21T06:40:32.685Z,15.20
2022-11-21T06:42:59.556Z,7.30
2022-11-21T06:45:26.473Z,7.67
2022-11-21T06:47:53.282Z,10.40
2022-11-21T06:50:20.172Z,12.77
2022-11-21T06:52:47.124Z,9.27
2022-11-21T06:55:14.336Z,18.47
2022-11-21T06:57:42.545Z,11.20
2022-11-21T07:00:10.386Z,16.67
2022-11-21T07:02:37.274Z,18.10
2022-11-21T07:05:04.349Z,12.33
2022-11-21T07:07:31.209Z,12.17
2022-11-21T07:09:58.094Z,13.07
2022-11-21T07:12:43.324Z,15.07
2022-11-21T07:15:12.338Z,8.67
2022-11-21T07:17:39.168Z,16.77
2022-11-21T07:20:07.166Z,13.67
2022-11-21T07:22:34.006Z,12.80
2022-11-21T07:25:00.779Z,14.67
2022-11-21T07:27:27.587Z,14.03
2022-11-21T07:29:57.404Z,14.43
2022-11-21T07:32:26.168Z,16.77
2022-11-21T07:34:52.977Z,11.30
2022-11-21T07:37:20.239Z,18.93
2022-11-21T07:39:47.068Z,9.47
2022-11-21T07:42:13.858Z,11.87
2022-11-21T07:44:40.595Z,17.70
2022-11-21T07:47:07.381Z,15.07
2022-11-21T07:49:35.532Z,11.30
2022-11-21T07:52:02.339Z,10.87
2022-11-21T07:54:29.138Z,13.83
2022-11-21T07:56:55.941Z,12.23
2022-11-21T07:59:22.781Z,8.57
2022-11-21T08:01:52.326Z,14.97
2022-11-21T08:04:19.251Z,20.73
2022-11-21T08:06:47.494Z,13.97
2022-11-21T08:09:14.683Z,8.63
2022-11-21T08:11:41.455Z,10.23
2022-11-21T08:14:08.283Z,9.77
2022-11-21T08:16:35.057Z,11.87
2022-11-21T08:19:02.094Z,12.50
2022-11-21T08:21:28.898Z,10.90
2022-11-21T08:23:57.197Z,8.47
2022-11-21T08:26:24.010Z,13.77
2022-11-21T08:28:53.270Z,15.27
2022-11-21T08:31:22.478Z,13.43
2022-11-21T08:33:49.233Z,10.60
2022-11-21T08:36:15.994Z,14.23
2022-11-21T08:38:42.940Z,22.10
2022-11-21T08:41:31.705Z,14.70
2022-11-21T08:43:58.479Z,17.97
2022-11-21T08:46:28.068Z,11.83
2022-11-21T08:48:55.326Z,18.00
2022-11-21T08:51:22.645Z,11.70
2022-11-21T08:53:49.494Z,11.97
2022-11-21T08:56:17.619Z,10.07
2022-11-21T08:58:44.405Z,9.53
2022-11-21T09:01:11.159Z,16.10
2022-11-21T09:03:38.155Z,7.70
2022-11-21T09:06:05.253Z,9.80
2022-11-21T09:08:32.144Z,8.33
2022-11-21T09:10:59.210Z,8.40
2022-11-21T09:13:27.720Z,17.60
2022-11-21T09:16:16.288Z,9.87
2022-11-21T09:18:47.049Z,13.57
2022-11-21T09:21:14.844Z,18.77
2022-11-21T09:23:41.746Z,21.07
2022-11-21T09:26:08.778Z,29.33
2022-11-21T09:28:37.143Z,13.05
2022-11-21T09:31:05.202Z,19.60
2022-11-21T09:33:32.068Z,18.87
2022-11-21T09:35:59.416Z,25.43
2022-11-21T09:38:26.929Z,16.07
2022-11-21T09:41:32.292Z,23.10
2022-11-21T09:44:10.467Z,14.10
2022-11-21T09:46:46.107Z,35.72
2022-11-21T09:49:14.835Z,31.03
2022-11-21T09:51:44.035Z,19.48
2022-11-21T09:54:19.350Z,15.60
2022-11-21T09:56:48.435Z,27.73
2022-11-21T09:59:29.901Z,22.27
2022-11-21T10:01:56.891Z,21.30
2022-11-21T10:04:23.861Z,26.20
2022-11-21T10:07:01.003Z,23.77
2022-11-21T10:09:40.886Z,21.40
2022-11-21T10:12:36.175Z,21.27
2022-11-21T10:15:15.833Z,29.38
2022-11-21T10:17:55.711Z,26.35
2022-11-21T10:20:33.753Z,15.37
2022-11-21T10:23:24.609Z,30.47
2022-11-21T10:25:57.247Z,15.20
2022-11-21T10:28:34.747Z,24.23
2022-11-21T10:31:04.272Z,18.15
2022-11-21T10:33:33.872Z,25.13
2022-11-21T10:36:06.111Z,27.65
2022-11-21T10:38:38.897Z,23.15
2022-11-21T10:41:14.225Z,25.48
2022-11-21T10:44:04.678Z,19.23
2022-11-21T10:46:32.906Z,27.05
2022-11-21T10:49:01.092Z,26.60
2022-11-21T10:51:45.635Z,28.05
2022-11-21T10:54:32.158Z,26.27
2022-11-21T10:57:01.924Z,25.92
2022-11-21T10:59:31.312Z,27.57
2022-11-21T11:02:01.087Z,33.45
2022-11-21T11:04:32.117Z,29.05
2022-11-21T11:07:21.498Z,29.02
2022-11-21T11:09:48.526Z,28.67
2022-11-21T11:12:47.886Z,22.75
2022-11-21T11:15:20.350Z,22.27
2022-11-21T11:17:53.288Z,27.38
2022-11-21T11:20:33.237Z,33.10
2022-11-21T11:23:00.517Z,27.35
2022-11-21T11:25:27.305Z,27.52
2022-11-21T11:27:54.065Z,31.15
2022-11-21T11:30:21.421Z,22.50
2022-11-21T11:32:58.282Z,24.20
2022-11-21T11:35:30.165Z,31.23
2022-11-21T11:38:03.876Z,25.45
2022-11-21T11:40:36.242Z,23.55
2022-11-21T11:43:44.798Z,30.88
2022-11-21T11:46:39.737Z,25.10
2022-11-21T11:49:21.848Z,16.50
2022-11-21T11:51:54.431Z,15.47
2022-11-21T11:54:27.799Z,22.23
2022-11-21T11:56:55.664Z,16.00
2022-11-21T11:59:28.831Z,21.77
2022-11-21T12:02:01.054Z,20.50
2022-11-21T12:04:47.124Z,19.17
2022-11-21T12:11:12.715Z,23.75
2022-11-21T12:13:41.277Z,22.95
2022-11-21T12:16:14.971Z,24.67
2022-11-21T12:18:51.597Z,28.85
2022-11-21T12:21:20.056Z,33.03
2022-11-21T12:23:49.043Z,24.85
2022-11-21T12:26:27.322Z,26.80
2022-11-21T12:31:54.421Z,24.60
2022-11-21T12:34:34.686Z,26.77
2022-11-21T12:37:09.684Z,25.27
2022-11-21T12:40:25.058Z,31.67
2022-11-21T12:45:49.683Z,22.20
2022-11-21T12:48:58.950Z,37.30
2022-11-21T12:54:33.822Z,23.20
2022-11-21T13:03:27.022Z,21.77
2022-11-21T13:14:42.715Z,21.23
2022-11-21T13:17:17.941Z,30.88
2022-11-21T13:19:51.970Z,25.42
2022-11-21T13:24:59.016Z,30.63
2022-11-21T13:27:38.824Z,32.13
2022-11-21T13:30:27.272Z,23.90
2022-11-21T13:36:05.627Z,20.58
2022-11-21T13:38:56.401Z,22.63
2022-11-21T13:42:20.453Z,20.83
2022-11-21T13:44:47.869Z,26.87
2022-11-21T13:47:35.313Z,23.20
2022-11-21T13:50:09.603Z,20.80
2022-11-21T13:52:47.104Z,17.52
2022-11-21T13:55:30.497Z,14.02
2022-11-21T13:58:14.727Z,16.67
2022-11-21T14:03:32.105Z,11.00
2022-11-21T14:06:09.689Z,14.38
2022-11-21T14:08:37.912Z,13.82
2022-11-21T14:11:20.330Z,14.95
2022-11-21T14:13:49.385Z,19.58
2022-11-21T14:16:28.713Z,13.60
2022-11-21T14:18:56.287Z,18.85
2022-11-21T14:21:27.099Z,22.95
2022-11-21T14:23:58.008Z,23.17
2022-11-21T14:26:25.640Z,17.60
2022-11-21T14:28:52.730Z,20.98
2022-11-21T14:31:19.692Z,14.52
2022-11-21T14:33:47.741Z,16.25
2022-11-21T14:36:17.405Z,16.65
2022-11-21T14:38:48.913Z,11.00
2022-11-21T14:41:29.075Z,16.42
2022-11-21T14:44:04.287Z,13.73
2022-11-21T14:46:33.519Z,15.50
2022-11-21T14:49:21.196Z,44.72
2022-11-21T14:51:50.094Z,21.98
2022-11-21T14:54:19.399Z,14.70
2022-11-21T14:56:53.849Z,13.48
2022-11-21T14:59:24.773Z,13.52
2022-11-21T15:01:57.616Z,17.17
2022-11-21T15:04:31.559Z,12.02
2022-11-21T15:06:58.951Z,14.40
2022-11-21T15:10:26.086Z,16.58
2022-11-21T15:12:21.101Z,19.15
2022-11-21T15:14:50.695Z,22.67
2022-11-21T15:17:21.457Z,17.00
2022-11-21T15:20:09.804Z,12.27
2022-11-21T15:22:41.263Z,13.77
2022-11-21T15:25:18.561Z,22.35
2022-11-21T15:36:06.989Z,21.07
2022-11-21T15:57:09.933Z,12.43
2022-11-21T15:57:14.292Z,11.90
2022-11-21T16:27:02.432Z,26.58
2022-11-21T16:29:29.383Z,22.43
2022-11-21T16:31:56.442Z,24.08
2022-11-21T16:34:23.263Z,22.23
2022-11-21T16:36:50.625Z,15.87
2022-11-21T16:39:29.629Z,20.37
2022-11-21T16:41:56.508Z,21.13
2022-11-21T16:44:24.708Z,13.68
2022-11-21T16:46:54.320Z,19.80
2022-11-21T16:49:21.480Z,12.50
2022-11-21T16:51:48.297Z,17.98
2022-11-21T16:54:15.358Z,20.90
2022-11-21T16:59:29.267Z,17.83
2022-11-21T17:01:56.233Z,16.10
2022-11-21T17:04:23.015Z,22.35
2022-11-21T17:06:49.888Z,21.70
2022-11-21T17:09:17.152Z,23.57
2022-11-21T17:11:44.015Z,12.20
2022-11-21T17:14:12.694Z,17.58
2022-11-21T17:16:41.811Z,11.55
2022-11-21T17:19:11.577Z,21.13
2022-11-21T17:21:38.400Z,13.90
2022-11-21T17:24:08.692Z,19.30
2022-11-21T17:26:42.218Z,12.75
2022-11-21T17:29:09.504Z,13.55
2022-11-21T17:31:36.501Z,12.02
2022-11-21T17:34:04.761Z,10.80
2022-11-21T17:36:34.556Z,13.70
2022-11-21T17:39:01.846Z,15.80
2022-11-21T17:41:28.720Z,13.77
2022-11-21T17:43:56.487Z,17.33
2022-11-21T17:46:25.589Z,11.10
2022-11-21T17:48:57.316Z,10.67
2022-11-21T17:51:29.051Z,8.33
2022-11-21T17:53:56.415Z,16.77
2022-11-21T17:56:25.538Z,11.67
2022-11-21T17:58:52.506Z,11.33
2022-11-21T18:01:20.231Z,9.48
2022-11-21T18:03:48.276Z,8.83
2022-11-21T18:06:17.011Z,15.33
2022-11-21T18:08:48.227Z,11.97
2022-11-21T18:11:23.827Z,10.80
2022-11-21T18:13:51.066Z,9.18
2022-11-21T18:16:20.259Z,14.60
2022-11-21T18:18:47.709Z,29.58
2022-11-21T18:21:17.435Z,12.20
2022-11-21T18:23:46.959Z,17.92
2022-11-21T18:26:16.198Z,17.23
2022-11-21T18:28:43.026Z,17.37
2022-11-21T18:31:12.308Z,11.40
2022-11-21T18:33:39.959Z,12.75
2022-11-21T18:36:08.630Z,7.32
2022-11-21T18:39:02.176Z,11.48
2022-11-21T18:41:28.771Z,12.57
2022-11-21T18:43:57.510Z,18.43
2022-11-21T18:46:26.098Z,11.90
2022-11-21T18:49:08.742Z,9.10
2022-11-21T18:51:36.697Z,12.75
2022-11-21T18:54:07.253Z,10.33
2022-11-21T18:56:36.602Z,14.63
2022-11-21T18:59:05.753Z,7.17
2022-11-21T19:01:33.995Z,9.30
2022-11-21T19:04:00.942Z,8.02
2022-11-21T19:06:28.091Z,11.98
2022-11-21T19:08:56.427Z,13.33
2022-11-21T19:11:24.902Z,9.77
2022-11-21T19:13:54.243Z,9.90
2022-11-21T19:16:24.688Z,26.40
2022-11-21T19:21:41.843Z,10.18
2022-11-21T19:24:13.230Z,8.03
2022-11-21T19:26:41.000Z,10.43
2022-11-21T19:29:09.475Z,14.67
2022-11-21T19:31:41.036Z,11.17
2022-11-21T19:34:11.443Z,10.48
2022-11-21T19:36:39.443Z,9.80
2022-11-21T19:39:06.406Z,8.60
2022-11-21T19:41:33.295Z,10.70
2022-11-21T19:44:01.174Z,10.73
2022-11-21T19:46:32.547Z,15.30
2022-11-21T19:49:00.328Z,7.70
2022-11-21T19:51:29.649Z,7.57
2022-11-21T19:53:56.454Z,7.63
2022-11-21T19:56:24.792Z,10.20
2022-11-21T19:58:52.517Z,11.52
2022-11-21T20:01:21.060Z,7.80
2022-11-21T20:03:50.799Z,16.02
2022-11-21T20:06:20.109Z,8.10
2022-11-21T20:08:49.806Z,6.30
2022-11-21T20:11:16.838Z,14.60
2022-11-21T20:13:45.300Z,7.05
2022-11-21T20:16:19.075Z,10.40
2022-11-21T20:18:46.330Z,8.85
2022-11-21T20:21:15.181Z,12.82
2022-11-21T20:23:42.063Z,14.00
2022-11-21T20:26:09.805Z,9.10
2022-11-21T20:28:37.297Z,10.02
2022-11-21T20:31:06.481Z,15.95
2022-11-21T20:33:37.694Z,8.63
2022-11-21T20:36:06.864Z,11.63
2022-11-21T20:38:35.956Z,9.15
2022-11-21T20:41:02.879Z,6.97
2022-11-21T20:44:02.788Z,14.80
2022-11-21T20:46:20.475Z,17.00
2022-11-21T20:48:48.425Z,12.88
2022-11-21T20:54:04.470Z,10.60
2022-11-21T20:56:32.810Z,11.27
2022-11-21T20:58:59.649Z,18.83
2022-11-21T21:01:27.808Z,12.27
2022-11-21T21:03:55.110Z,21.25
2022-11-21T21:06:24.172Z,8.90
2022-11-21T21:08:52.089Z,25.90
2022-11-21T21:11:49.819Z,20.33
2022-11-21T21:14:08.808Z,17.38
2022-11-21T21:16:36.215Z,10.52
2022-11-21T21:19:03.548Z,10.65
2022-11-21T21:21:33.496Z,12.60
2022-11-21T21:24:02.283Z,10.23
2022-11-21T21:26:37.295Z,9.97
2022-11-21T21:29:09.629Z,14.57
2022-11-21T21:31:36.492Z,15.68
2022-11-21T21:34:03.440Z,16.03
2022-11-21T21:36:30.551Z,14.73
2022-11-21T21:38:58.349Z,16.10
2022-11-21T21:41:27.213Z,11.60
2022-11-21T21:43:57.428Z,13.33
2022-11-21T21:46:26.065Z,12.70
2022-11-21T21:48:55.884Z,17.60
2022-11-21T21:51:24.306Z,14.40
2022-11-21T21:53:52.782Z,12.37
2022-11-21T21:56:21.250Z,16.23
2022-11-21T21:58:49.305Z,18.43
2022-11-21T22:01:19.205Z,15.83
2022-11-21T22:03:47.322Z,13.57
2022-11-21T22:06:15.926Z,20.53
2022-11-21T22:08:44.044Z,10.83
2022-11-21T22:11:12.881Z,28.87
2022-11-21T22:13:41.690Z,12.20
2022-11-21T22:16:10.037Z,8.83
2022-11-21T22:18:38.480Z,13.50
2022-11-21T22:21:13.604Z,16.07
2022-11-21T22:23:56.504Z,13.67
2022-11-21T22:26:27.676Z,13.50
2022-11-21T22:28:54.453Z,17.43
2022-11-21T22:31:22.066Z,19.03
2022-11-21T22:33:50.242Z,22.53
2022-11-21T22:36:18.822Z,16.90
2022-11-21T22:38:46.246Z,13.70
2022-11-21T22:41:15.307Z,16.90
2022-11-21T22:43:43.133Z,16.63
2022-11-21T22:46:11.679Z,19.47
2022-11-21T22:48:39.196Z,24.37
2022-11-21T22:51:08.011Z,31.67
2022-11-21T22:53:39.940Z,25.23
2022-11-21T22:56:08.938Z,12.40
2022-11-21T22:58:37.919Z,7.77
2022-11-21T23:01:06.925Z,18.40
2022-11-21T23:03:35.018Z,16.23
2022-11-21T23:06:02.451Z,24.93
2022-11-21T23:08:31.529Z,15.83
2022-11-21T23:11:05.674Z,12.70
2022-11-21T23:13:33.296Z,18.10
2022-11-21T23:16:00.110Z,17.97
2022-11-21T23:18:27.035Z,10.37
2022-11-21T23:20:54.175Z,25.87
2022-11-21T23:23:21.085Z,14.03
2022-11-21T23:25:50.114Z,18.10
2022-11-21T23:28:16.980Z,20.37
2022-11-21T23:30:45.484Z,13.10
2022-11-21T23:33:12.539Z,18.30
2022-11-21T23:35:39.474Z,13.77
2022-11-21T23:38:06.451Z,29.73
2022-11-21T23:40:33.274Z,14.27
2022-11-21T23:43:01.444Z,24.63
2022-11-21T23:45:28.285Z,18.10
2022-11-21T23:47:55.225Z,13.20
2022-11-21T23:50:22.276Z,18.17
2022-11-21T23:52:49.429Z,19.60
2022-11-21T23:55:16.670Z,20.00
2022-11-21T23:57:47.264Z,16.90
